Dados Meteorológicos "Online"
 
  Base de Dados  
 
Dinamização da Estação Meteorológica (na escola)
 
Dados relativos aos últimos 2 meses:
Data/HoraTemperaturaHumi. Rela.PressãoPrecipitaçãoVel.VentoDir.VentoVel.RajadaDir.RajadaRadiação SolarÍndice U.V.
(ºC)(%)(hPa)(mm)(km/h)(km/h)(W / m2)(0-11)
2017-03-26 13:00:0013,788,91007,4121,2S49,9S1130,5
2017-03-26 12:00:0015,079,31008,3019,9S41,5S1770,7
2017-03-26 11:00:0013,788,31009,2014,9S35,6S2921,0
2017-03-26 10:00:0014,376,71009,6313,6S41,4S1210,1
2017-03-26 09:00:0013,380,31010,1012,0S32,2S610,0
2017-03-26 08:00:0012,382,51010,208,9S17,3S50
2017-03-26 07:00:0012,479,81010,409,0S19,4SW00
2017-03-26 06:00:0012,279,21010,6012,0SW25,6SW00
2017-03-26 05:00:0011,186,51011,3010,5SW24,7SW-10
2017-03-26 04:00:009,389,71012,202,3NE9,3SW-10
2017-03-26 03:00:009,489,61012,801,4NE4,1NE00
2017-03-26 01:00:009,488,41013,202,3NE4,8NE00
2017-03-26 00:00:009,986,91013,501,8NE8,5N-10
2017-03-25 23:00:0010,483,01013,500,1W4,0W00
2017-03-25 22:00:0011,079,41013,301,7W5,1NW00
2017-03-25 21:00:0011,775,81012,702,3W7,5NW00
2017-03-25 20:00:0012,274,21012,004,7W19,0SW00
2017-03-25 19:00:0013,468,81011,305,8W15,2SW230,0
2017-03-25 18:00:0014,566,51010,6010,2SW23,0W960,1
2017-03-25 17:00:0016,458,21010,1014,0SW27,3W3170,8
2017-03-25 16:00:0017,854,41010,3015,0SW30,5SW5302,1
2017-03-25 15:00:0018,255,21010,7015,9SW34,1SW6073,1
2017-03-25 14:00:0018,258,11011,3015,4SW31,1SW6984,0
2017-03-25 13:00:0016,863,01011,6014,1SW30,9W5023,2
2017-03-25 12:00:0016,568,21011,9013,7SW28,1SW6213,3
2017-03-25 11:00:0014,382,61012,1010,7W33,9SW4121,7
2017-03-25 10:00:0012,194,81011,90,29,1W23,8W2110,8
2017-03-25 09:00:0010,995,41011,50,46,6W18,9W1270,3
2017-03-25 08:00:0011,785,31011,1213,4SW31,0SW810,0
2017-03-25 07:00:0010,293,31010,7012,3SW27,9SW50
2017-03-25 06:00:0010,195,51010,4011,8SW25,1W00
2017-03-25 05:00:0010,195,41010,20,213,9SW35,6SW-10
2017-03-25 04:00:0010,493,31010,40,414,7SW32,4SW00
2017-03-25 03:00:0010,493,61010,7014,4SW29,5W00
2017-03-25 02:00:0010,094,21011,1018,3SW37,9SW00
2017-03-25 01:00:009,897,51011,60,210,8SW24,2SW00
2017-03-24 17:00:0014,153,01011,7011,8NW24,2W2850,5
2017-03-24 16:00:0015,351,31011,6010,6NW24,7NW3811,4
2017-03-24 15:00:0016,748,51012,1011,2NW25,1NW6752,6
2017-03-24 14:00:0014,755,11012,809,3NW27,1NW4512,1
2017-03-24 09:00:008,498,41014,903,7NE10,9NE2900,5
2017-03-24 08:00:006,399,41014,502,8NE5,3NE800,0
2017-03-24 07:00:005,899,31013,702,2NW11,7E100
2017-03-24 06:00:006,199,21013,40,61,7NW4,9NE00
2017-03-24 05:00:006,099,01013,30,22,4NE9,1N-10
2017-03-24 04:00:005,898,91013,50,25,4NE12,2N00
2017-03-24 03:00:005,898,71013,90,42,8E8,7E00
2017-03-24 02:00:005,498,51014,20,42,1NW8,4NW00
2017-03-24 01:00:005,298,11014,602,8W9,2W00
2017-03-24 00:00:005,797,81014,901,5NW5,7W00
2017-03-23 23:00:005,997,31015,002,9NW8,8NW00
2017-03-23 22:00:006,396,51014,902,3W8,2W00
2017-03-23 21:00:006,695,61014,803,8NW13,6W00
2017-03-23 20:00:006,994,81014,20,28,4NW20,1W00
2017-03-23 19:00:007,689,41013,817,6NW20,8N140
2017-03-23 18:00:009,676,31013,40,213,2N31,4N690,0
2017-03-23 12:00:0014,553,11014,5016,8N33,4NW6482,8
2017-03-23 11:00:0012,470,41015,1011,8NW36,6N6212,1
2017-03-23 08:00:005,998,11016,404,3W12,5NW980,0
2017-03-23 07:00:005,498,41016,40,46,2NW30,2N70
2017-03-23 06:00:005,498,11016,30,25,2NW19,0N00
2017-03-23 05:00:005,797,61016,40,43,9W16,8W00
2017-03-23 04:00:005,597,21016,70,85,1W21,1N00
2017-03-23 03:00:006,194,81017,50,24,2NW12,0SW00
2017-03-23 02:00:006,590,31017,90,84,7N20,0NW00
2017-03-23 01:00:005,793,71018,102,8W7,2W00
2017-03-23 00:00:006,293,11018,202,0W5,2SW00
2017-03-22 23:00:006,891,91018,201,8NW6,0NW00
2017-03-22 22:00:007,692,31018,10,25,1NW22,2N00
2017-03-22 21:00:009,184,61017,80,27,7NW21,6NW00
2017-03-22 20:00:0010,274,81017,009,2NW21,3NW00
2017-03-22 19:00:0011,574,01016,2012,6NW29,0NW200,0
2017-03-22 18:00:0012,380,61015,9010,9NW22,8NW920,1
2017-03-22 17:00:0012,485,01015,6011,0NW30,2NW1490,4
2017-03-22 16:00:0013,184,61015,70,215,5NW35,8NW2621,2
2017-03-22 15:00:0013,689,71015,91,211,1NW30,5N2681,4
2017-03-22 14:00:0016,857,61016,6017,0NW36,0NW3812,4
2017-03-22 13:00:0016,758,71017,7012,4W32,5NW5863,7
2017-03-22 08:00:0010,586,31019,803,0W9,3NW510,0
2017-03-22 07:00:009,291,21020,002,5W5,4SW20
2017-03-22 06:00:008,692,11020,101,1SW10,1S00
2017-03-22 05:00:008,692,41020,201,9NW5,7NW00
2017-03-22 04:00:008,294,11020,602,6NW8,5NW00
2017-03-22 03:00:008,293,01021,102,9W7,8W00
2017-03-22 02:00:009,091,61021,301,5SW4,1SW00
2017-03-22 01:00:009,788,11021,701,1NW6,7NW00
2017-03-22 00:00:0010,485,21021,805,4NW15,6NW00
2017-03-21 23:00:0010,884,01021,907,7NW13,8NW00
2017-03-21 22:00:0011,183,11022,008,0NW19,3NW00
2017-03-21 21:00:0011,880,41021,604,9NW14,8NW00
2017-03-21 20:00:0012,975,31020,5013,2NW29,8N00
2017-03-21 19:00:0014,071,11019,5013,4NW32,0N90,0
2017-03-21 18:00:0015,766,21018,5015,0NW34,1NW240,1
2017-03-21 14:00:0016,574,01019,6010,3NW26,1NW2461,6
2017-03-21 12:00:0016,372,71020,3011,4NW25,5NW3342,2
2017-03-21 11:00:0016,762,61020,4010,8NW23,9W2481,4
2017-03-21 08:00:0011,285,71020,800,7S8,2S910,0
2017-03-21 07:00:009,687,41020,300,8SW4,0W40
2017-03-21 06:00:008,787,31020,003,1W9,0W00
2017-03-21 05:00:009,684,51019,405,0NW14,1NW00
2017-03-21 04:00:0010,183,51019,307,5N23,0NW00
2017-03-21 03:00:009,886,81019,302,8NE13,1NW00
2017-03-21 02:00:0010,583,71019,108,5N22,5N00
2017-03-21 01:00:009,789,41019,003,3NW11,0NW00
2017-03-21 00:00:0010,585,01019,004,9N14,9NW00
2017-03-20 23:00:0011,581,41019,006,7N18,1NW00
2017-03-20 22:00:0012,279,71018,7013,1NW29,1NW00
2017-03-20 21:00:0012,580,11018,1014,8NW32,2N00
2017-03-20 20:00:0012,878,91017,4014,6NW30,1NW00
2017-03-20 19:00:0013,975,11016,5014,6NW31,7NW90,0
2017-03-20 18:00:0015,269,51015,6016,9NW34,4NW270,1
2017-03-20 17:00:0017,163,71015,1017,3NW35,9NW2910,9
2017-03-20 16:00:0019,058,51015,0016,2NW34,3NW5482,4
2017-03-20 15:00:0019,556,71015,2016,8NW31,6NW6543,8
2017-03-20 14:00:0019,258,41015,6016,5NW38,5NW7244,8
2017-03-20 13:00:0018,862,21015,7016,9NW34,2NW7335,1
2017-03-20 12:00:0018,862,61015,8012,6NW27,7NW6884,4
2017-03-20 11:00:0017,263,41016,405,4E19,0N5933,1
2017-03-20 09:00:0013,877,51016,803,4E11,6SE2960,6
2017-03-20 08:00:009,296,11016,603,4N9,3NW1300,0
2017-03-20 07:00:008,097,31016,104,4NW10,5N40
2017-03-20 06:00:008,396,61015,702,5NW7,7NW00
2017-03-20 05:00:009,095,81015,300,7NW4,8NW00
2017-03-20 04:00:009,994,21014,801,7SW5,3W00
2017-03-20 03:00:0010,892,21014,601,1S5,3SE00
2017-03-20 02:00:0011,890,01014,702,4N7,6N-10
2017-03-20 01:00:0012,788,01014,606,5NW22,3NW00
2017-03-20 00:00:0012,985,41014,609,8NW20,7NW00
2017-03-19 23:00:0012,982,01014,607,8NW19,2NW00
2017-03-19 22:00:0013,772,21014,407,2NW16,7NW00
2017-03-19 21:00:0014,471,81014,008,8NW17,9NW-10
2017-03-19 20:00:0015,568,31013,2010,8NW22,3NW-10
2017-03-19 19:00:0017,563,21012,5011,2NW29,5NW100,0
2017-03-19 18:00:0019,853,51011,9010,6NW24,3NW340,1
2017-03-19 17:00:0023,237,61011,8012,1NW29,1NW2970,8
2017-03-19 16:00:0025,234,41012,3011,6NW26,7NW5242,1
2017-03-19 15:00:0025,935,71013,3010,5W26,4W6023,3
2017-03-19 14:00:0024,035,11014,6011,7SW23,5SW7214,3
2017-03-19 13:00:0023,333,61015,6010,3SW19,4SW7304,5
2017-03-19 12:00:0023,238,41016,406,2SW19,7S6833,9
2017-03-19 11:00:0021,247,01017,103,0S9,8SW5852,8
2017-03-19 10:00:0017,658,31017,702,0E7,7W4411,5
2017-03-19 09:00:0013,672,11017,902,5E6,5NE2690,5
2017-03-19 08:00:009,288,71018,102,9E6,1E970,0
2017-03-19 07:00:008,490,01018,003,3E5,7E40
2017-03-19 06:00:008,789,11018,002,6E6,0E-10
2017-03-19 05:00:008,788,71017,902,5E9,4E00
2017-03-19 04:00:009,486,91017,801,9N5,9N00
2017-03-19 03:00:009,788,71017,902,5E7,2E00
2017-03-19 02:00:0010,189,21017,903,2E12,1SE00
2017-03-19 01:00:0010,288,11017,701,9NE4,2NE00
2017-03-19 00:00:0010,885,91017,902,3NE5,5NE00
2017-03-18 23:00:0011,583,51017,802,9E6,3E00
2017-03-18 22:00:0012,381,11017,402,0NE5,6NE00
2017-03-18 21:00:0013,374,31016,600,7W5,5W00
2017-03-18 20:00:0014,370,91015,703,2W9,1SW-10
2017-03-18 19:00:0015,964,31015,304,6W10,0W130,0
2017-03-18 18:00:0017,855,41014,705,4SW10,9SW550,1
2017-03-18 17:00:0019,356,51014,405,9SW12,6S2620,6
2017-03-18 16:00:0021,054,81014,408,0SW15,7SW4871,7
2017-03-18 15:00:0021,257,51014,9011,3SW24,5S6052,8
2017-03-18 14:00:0022,452,01015,509,7SW18,0S6633,5
2017-03-18 13:00:0023,144,41016,306,1SW18,4SW6843,8
2017-03-18 12:00:0022,538,11017,108,1SE16,9E5763,1
2017-03-18 11:00:0020,946,11017,706,2E13,7SE5642,4
2017-03-18 10:00:0017,862,51017,903,2SE7,5SE4421,3
2017-03-18 09:00:0013,974,11017,902,2E9,0NE2480,4
2017-03-18 08:00:009,193,91018,103,2NE7,6NE720,0
2017-03-18 07:00:008,295,81017,902,8E6,7NE30
2017-03-18 06:00:008,495,71017,602,5NE5,6NE00
2017-03-18 05:00:008,895,31017,502,1NE10,3E00
2017-03-18 04:00:009,394,81017,401,8E5,5E-10
2017-03-18 03:00:009,694,61017,302,5E6,3E00
2017-03-18 02:00:0010,193,61017,302,1E5,3SE00
2017-03-18 01:00:0010,793,31017,103,0E9,3E00
2017-03-18 00:00:0010,892,11016,801,9NE7,5SE00
2017-03-17 23:00:0011,689,51016,701,9N5,3NE00
2017-03-17 22:00:0012,684,81016,702,5NE15,1W00
2017-03-17 21:00:0013,083,21015,901,9N4,8NW00
2017-03-17 20:00:0014,274,91015,102,2NW7,5NW-10
2017-03-17 19:00:0015,766,61014,503,2E7,7S120,0
2017-03-17 18:00:0017,165,01013,606,8S15,3S610,1
2017-03-17 17:00:0018,660,61013,2011,1S26,7S2400,6
2017-03-17 16:00:0020,055,91013,2013,9S24,5S4991,8
2017-03-17 15:00:0020,055,21013,7015,1SE27,0SE6172,9
2017-03-17 14:00:0019,655,51014,40,216,5SE31,6SE6913,7
2017-03-17 13:00:0019,056,41015,0016,9SE35,1S7024,0
2017-03-17 11:00:0016,768,31015,7016,2E30,0SE5432,3
2017-03-17 09:00:0013,284,71015,5010,4E22,0E940,2
2017-03-17 08:00:0012,183,71015,106,1NE17,1NE290,0
2017-03-17 07:00:0011,484,61014,603,5NE11,5E10
2017-03-17 06:00:0011,881,21014,102,6NE6,7NE-10
2017-03-17 05:00:0012,277,71013,706,1NE14,9NE-10
2017-03-17 04:00:0011,785,91013,705,0E12,0E-10
2017-03-17 03:00:0011,985,51014,004,7E9,9E00
2017-03-17 02:00:0012,283,11014,105,1E12,9NE00
2017-03-17 01:00:0012,383,91014,107,3E21,0NE00
2017-03-17 00:00:0011,593,01014,405,9NE13,5NE00
2017-03-16 23:00:0011,992,01014,90,63,9NE11,7NE00
2017-03-16 22:00:0012,187,51014,807,6E19,2E-10
2017-03-16 21:00:0012,386,21014,609,6E21,4E00
2017-03-16 20:00:0012,186,71014,109,8E21,3NE-10
2017-03-16 19:00:0012,487,81014,008,5E21,0E140
2017-03-16 18:00:0012,391,31013,709,8E19,7E990,1
2017-03-16 17:00:0012,293,41013,60,210,2E20,8E720,1
2017-03-16 16:00:0012,695,51014,209,1E17,6E2870,9
2017-03-16 14:00:0011,697,61015,20,210,1E24,6E1210,6
2017-03-16 12:00:0011,398,41016,12,412,4E26,5E710,3
2017-03-16 10:00:0011,196,51015,9510,1SE23,4SE110
2017-03-16 08:00:0012,486,71014,92,411,8E27,5E60
2017-03-16 07:00:0013,674,91014,5014,4E30,0E00
2017-03-16 06:00:0014,668,51014,3015,4E35,0E-10
2017-03-16 05:00:0014,768,11014,5016,9E36,3E00
2017-03-16 04:00:0014,265,01014,8014,8E31,2E00
2017-03-16 03:00:0013,962,81014,9013,0E26,2E00
2017-03-16 02:00:0014,758,51015,2017,2E29,3SE00
2017-03-16 01:00:0014,859,71015,6017,8E31,9SE00
2017-03-16 00:00:0014,857,41015,9018,0E38,7E00
2017-03-15 23:00:0014,158,81016,3012,5E25,6E-10
2017-03-15 22:00:0014,364,31016,309,1E19,0E-10
2017-03-15 21:00:0014,765,21015,908,3E17,5E00
2017-03-15 20:00:0015,363,81015,306,8E14,2E-10
2017-03-15 19:00:0016,557,61015,008,3E19,6E160
2017-03-15 12:00:0017,354,41016,80,223,8SE46,2SE3141,1
2017-03-15 09:00:0014,074,71017,407,5E14,4NE1300,1
2017-03-15 08:00:0012,381,51017,105,8NE14,2E380,0
2017-03-15 07:00:0012,479,81016,704,9E13,6SE00
2017-03-15 06:00:0013,174,31016,704,3E11,1NE00
2017-03-15 05:00:0013,671,91016,807,1NE16,1E00
2017-03-15 04:00:0014,070,71016,909,4E19,5E00
2017-03-15 03:00:0013,970,51017,307,2E18,5E-10
2017-03-15 02:00:0013,474,31017,608,0E15,6E00
2017-03-15 01:00:0013,375,21017,709,1E22,9E00
2017-03-15 00:00:0013,075,91018,0012,1E23,8E00
2017-03-14 23:00:0012,680,41018,008,9NE19,1E00
2017-03-14 22:00:0012,784,81018,0011,6E27,2E-10
2017-03-14 21:00:0013,072,01017,70,213,5E38,5E00
2017-03-14 20:00:0013,167,31017,407,3NE17,3E-10
2017-03-14 19:00:0014,560,91016,7013,0E30,4E80,0
2017-03-14 18:00:0015,556,81016,3016,5E35,3E520,1
2017-03-14 17:00:0016,453,01016,2016,0E33,6SE2270,5
2017-03-14 16:00:0015,858,61016,5015,6E30,4E4021,3
2017-03-14 15:00:0014,169,51016,60,215,2E33,3E2441,1
2017-03-14 09:00:0013,161,61017,9015,0E30,3E2240,3
2017-03-14 08:00:0011,568,51017,6010,0E21,8NE370,0
2017-03-14 07:00:0012,466,91016,9012,9NE30,1E10
2017-03-14 06:00:0012,662,81016,3012,2NE25,3N00
2017-03-14 05:00:0012,759,61016,0012,7NE27,9N00
2017-03-14 04:00:0013,255,41016,1016,3NE33,1N-10
2017-03-14 03:00:0013,852,01016,6015,2NE31,9NE-10
2017-03-14 02:00:0014,249,71017,2016,6NE35,7N00
2017-03-14 01:00:0014,548,41017,6017,8N38,8NE00
2017-03-14 00:00:0014,349,01018,0014,3N30,5N00
2017-03-13 14:00:0018,237,11018,2017,9NE39,1NE7143,7
2017-03-13 13:00:0017,338,41019,0015,4NE27,9NE7233,8
2017-03-13 12:00:0015,939,81019,9020,3NE39,9NE6763,2
2017-03-13 11:00:0014,841,91020,4021,3N42,6NE5802,2
2017-03-13 08:00:009,562,71021,6014,3N30,5N930,0
2017-03-13 07:00:008,965,51021,6010,8NW22,3NW20
2017-03-13 06:00:009,264,81021,809,4NW19,5NW00
2017-03-13 05:00:009,663,61021,8012,0NW24,3N00
2017-03-13 04:00:0010,561,41021,6013,8NW29,8N00
2017-03-13 03:00:0011,260,21022,1023,0N38,4N00
2017-03-13 02:00:0011,759,81022,2029,4N50,3N00
2017-03-13 01:00:0012,157,41022,0030,6N51,8N-10
2017-03-13 00:00:0012,653,31021,6033,1N56,7N00
2017-03-12 23:00:0013,151,61021,4030,7N59,8N-10
2017-03-12 22:00:0013,351,11020,8031,2N54,5N00
2017-03-12 21:00:0013,950,41020,4021,3NW49,7N00
2017-03-12 20:00:0014,849,91020,1010,6N35,7NE00
2017-03-12 10:00:0016,560,91021,5024,0N50,0N4231,5
2017-03-12 09:00:0015,058,91021,4029,8N47,0N2430,4
2017-03-12 08:00:0013,855,41020,5029,3N53,8N770,0
2017-03-12 07:00:0013,064,21020,2024,4N50,7N10
2017-03-12 06:00:0011,180,41020,009,5NE41,5N00
2017-03-12 05:00:0011,580,31019,402,9NE15,2NE00
2017-03-12 04:00:0012,176,41019,508,0N21,1N00
2017-03-12 03:00:0012,376,11019,609,0N24,1N00
2017-03-12 02:00:0012,873,51019,7012,0N24,6N00
2017-03-12 01:00:0012,875,51019,706,5NW21,0N-10
2017-03-12 00:00:0013,077,51019,709,7NW19,6N00
2017-03-11 23:00:0013,378,71019,609,9NW24,2NW-10
2017-03-11 22:00:0013,282,21019,207,6NW13,1NW00
2017-03-11 21:00:0014,478,31018,408,4NW17,7NW00
2017-03-11 20:00:0015,375,11017,709,9NW21,1NW00
2017-03-11 19:00:0016,475,21016,7015,3NW31,4NW70
2017-03-11 18:00:0018,671,41015,7016,5NW33,9NW600,1
2017-03-11 17:00:0020,768,61015,0013,4NW30,7NW1610,7
2017-03-11 16:00:0024,058,71015,109,0NW23,0NW3501,8
2017-03-11 15:00:0026,049,51015,604,8NW13,4W5183,2
2017-03-11 14:00:0025,446,81016,404,7SE12,2E6094,2
2017-03-11 13:00:0024,451,21017,104,4NW10,8NW6454,6
2017-03-11 12:00:0022,858,41017,705,5NW14,4N6044,1
2017-03-11 11:00:0021,263,61018,0010,4NW21,4NW6163,2
2017-03-11 10:00:0018,873,01018,308,7NW20,0NW3961,5
2017-03-11 09:00:0013,876,71018,404,9NW16,5W2210,4
2017-03-11 08:00:009,589,61018,302,8E6,0NE770,0
2017-03-11 07:00:009,192,61018,201,9NE5,1E10
2017-03-11 06:00:009,693,61018,001,3NW5,6NW00
2017-03-11 05:00:009,995,71017,903,1NW9,4N00
2017-03-11 04:00:0010,695,21018,101,8NE5,8E00
2017-03-11 03:00:0011,194,71018,402,7E8,4E00
2017-03-11 02:00:0011,394,91018,802,5E6,9E-10,0
2017-03-11 01:00:0011,794,41018,901,9E3,9E00
2017-03-11 00:00:0012,293,21019,002,0N6,2W-10
2017-03-10 23:00:0012,891,21018,703,0N7,5NW00
2017-03-10 22:00:0013,688,31018,302,5NE5,5E-10
2017-03-10 21:00:0014,584,71017,801,8N5,1NW00
2017-03-10 20:00:0015,680,21017,202,8N5,6N00
2017-03-10 19:00:0017,172,71016,502,9S6,1SE90,0
2017-03-10 18:00:0018,864,81016,005,5S14,1S420,1
2017-03-10 17:00:0020,656,71015,309,0S18,0S1620,9
2017-03-10 16:00:0023,149,21015,509,5S18,9S4982,5
2017-03-10 15:00:0024,346,51016,109,2S16,8S6234,0
2017-03-10 14:00:0023,947,41016,909,4S17,1SE6975,1
2017-03-10 09:00:0016,165,91019,201,5E4,3SE2490,5
2017-03-10 08:00:009,790,31019,201,0E4,0SE810,0
2017-03-10 07:00:009,189,81018,902,2E10,0NE10
2017-03-10 06:00:009,889,31018,602,2NE5,5NE00
2017-03-10 05:00:009,987,71018,603,6E7,8E00
2017-03-10 04:00:0010,284,11018,803,3NE5,5NE00
2017-03-10 03:00:0010,586,71019,104,3NE12,3NE00
2017-03-10 02:00:0011,185,91019,203,3E6,2E00
2017-03-10 01:00:0012,082,91019,202,9E12,8E-10
2017-03-10 00:00:0012,677,31019,303,2NE7,3E-10
2017-03-09 23:00:0014,271,11019,101,9E7,1NE-10
2017-03-09 23:25:0012,777,11019,203,4N5,9NE00
2017-03-09 23:00:0014,271,11019,101,9E7,1NE-10
2017-03-09 23:15:0012,877,11019,103,0N4,0N-10
2017-03-09 23:00:0014,271,11019,101,9E7,1NE-10
2017-03-09 23:10:0012,976,31019,203,3N4,7N-10
2017-03-09 23:00:0014,271,11019,101,9E7,1NE-10
2017-03-09 22:55:0013,673,81019,302,0NE2,9NE-10
2017-03-09 22:00:0015,168,41018,805,6E12,8NE00
2017-03-09 22:55:0013,673,81019,302,0NE2,9NE-10
2017-03-09 22:00:0015,168,41018,805,6E12,8NE00
2017-03-09 22:50:0013,972,61019,301,1E2,7NE-10
2017-03-09 22:45:0014,072,11019,200,6E2,2NE-10
2017-03-09 22:45:0014,072,11019,200,6E2,2NE-10
2017-03-09 22:40:0013,972,21019,102,5E3,8NE00
2017-03-09 22:40:0013,972,21019,102,5E3,8NE00
2017-03-09 22:40:0013,972,21019,102,5E3,8NE00
2017-03-09 22:00:0015,168,41018,805,6E12,8NE00
2017-03-09 22:35:0014,170,41019,002,9E3,6NE-10,0
2017-03-09 22:00:0015,168,41018,805,6E12,8NE00
2017-03-09 21:00:0016,167,71018,404,3E10,0E-10
2017-03-09 20:00:0017,862,21018,004,9E10,5E00
2017-03-09 19:00:0020,250,41017,707,9SE19,1E50,0
2017-03-09 18:00:0021,943,51017,4012,0SE25,0SE180,1
2017-03-09 17:00:0023,040,61017,3015,4SE34,6SE1610,9
2017-03-09 16:00:0024,237,61017,6017,6SE33,6SE5362,4
2017-03-09 15:00:0024,237,21018,0017,3SE36,7SE6413,9
2017-03-09 14:00:0023,837,01018,5019,0SE43,6SE7125,0
2017-03-09 13:00:0023,337,21019,3020,1SE40,9SE7155,2
2017-03-09 12:00:0022,539,11020,0019,7SE36,8SE6644,5
2017-03-09 11:00:0021,442,31020,5018,7SE39,5SE5653,2
2017-03-09 09:00:0018,550,81021,106,8E18,2E2470,5
2017-03-09 08:00:0013,364,61021,206,2E13,7E780,0
2017-03-09 07:00:0012,866,71020,806,3NE12,5NE10
2017-03-09 06:00:0013,068,01020,806,3NE13,1NE-10
2017-03-09 05:00:0013,569,31020,807,0NE13,0NE00
2017-03-09 04:00:0011,882,31020,906,5NE12,7E00
2017-03-09 03:00:0010,890,91021,204,5E10,0NE00
2017-03-09 02:00:0011,289,11021,502,6NE6,2E00
2017-03-09 01:00:0012,087,41021,502,6E14,8NE00
2017-03-09 00:00:0012,586,41021,703,7E8,0E00
2017-03-08 23:00:0013,085,11021,503,5E7,0E00
2017-03-08 22:00:0013,681,11020,903,0E6,7E00
2017-03-08 21:00:0014,874,01020,102,4N5,7N00
2017-03-08 20:00:0017,065,91019,303,0N5,1NW00
2017-03-08 19:00:0019,852,01018,903,4E12,8E50,0
2017-03-08 18:00:0021,643,11018,405,4SE11,1E190,1
2017-03-08 17:00:0023,439,01018,206,7S19,6S1300,9
2017-03-08 16:00:0025,236,81018,30,27,4S17,0S5352,5
2017-03-08 15:00:0025,541,81018,7010,8S20,6S6444,1
2017-03-08 14:00:0025,345,91019,408,9S17,4S7095,1
2017-03-08 13:00:0024,846,21020,207,2S18,7SW7135,3
2017-03-08 12:00:0023,944,010210,66,6E15,3SE6654,6
2017-03-08 10:00:0019,565,71022,002,0E9,2E4221,7
2017-03-08 09:00:0015,380,51022,801,5E4,4S2560,5
2017-01-25 08:00:000,397,51024,602,3E4,3E30
2017-03-08 08:00:009,897,91022,802,2E7,0E840,0
2017-03-08 07:00:009,496,91022,403,1NE6,1N10
2017-03-08 06:00:0010,295,31022,002,1NE6,0N00
2017-03-08 05:00:0011,492,01021,903,3E9,5NE00
2017-03-08 04:00:0012,788,31021,904,7NE12,7NE00
2017-03-08 03:00:0014,083,11022,406,4NE19,3NE00
2017-03-08 02:00:0014,183,91022,806,8NE15,6NE00
2017-03-08 01:00:0014,085,01023,105,3NE11,4E00
2017-03-08 00:00:0014,484,91023,304,9NE12,0NE00
2017-03-07 23:00:0014,285,31023,203,9NE8,5E00
2017-03-07 22:00:0016,476,11022,904,3N10,1N00
2017-03-07 21:00:0017,375,21022,505,5NE10,2NE00
2017-03-07 20:00:0018,667,91022,105,9NE17,4N00
2017-03-07 19:00:0018,868,61021,404,8E18,4NE50
2017-03-07 13:00:0022,449,91023,207,8NE15,4NE7055,1
2017-03-07 11:00:0017,868,11025,009,2E17,0E5533,0
2017-03-07 10:00:0016,474,61025,606,3E15,8E4051,5
2017-03-07 09:00:0013,392,21026,101,9S10,0NW2270,4
2017-03-07 08:00:009,899,31025,801,5W4,2W630,0
2017-03-07 07:00:0010,599,51025,603,9N12,8NE10
2017-03-07 06:00:0010,499,61025,703,8NE9,6NE-10
2017-03-07 05:00:0010,099,41025,803,3E14,0E00
2017-03-07 04:00:0010,399,11026,101,1NE4,2NE00
2017-03-07 03:00:0010,698,61026,203,1N9,4NW00
2017-03-07 02:00:0011,398,21026,402,5N7,3NE00
2017-03-07 01:00:0011,697,51026,401,9W11,9W00
2017-03-07 00:00:0012,196,31026,502,7W9,0W00
2017-03-06 17:00:0019,765,01023,2011,5NW23,5NW1660,7
2017-03-06 12:00:0019,262,71025,306,9SW12,9SW5963,8
2017-03-06 11:00:0018,067,61025,604,1SW9,4S5122,6
2017-03-06 10:00:0016,477,21026,002,8E14,5E3491,3
2017-03-06 09:00:0012,498,21026,401,2E3,9E2230,3
2017-03-06 08:00:0010,099,81026,101,1E5,1SE650,0
2017-03-06 07:00:009,899,61025,400,8N3,3N00
2017-03-06 06:00:0010,199,21024,800,8NE3,6NE00
2017-03-06 05:00:0011,098,81024,501,6NE5,0E00
2017-03-06 04:00:0011,998,41024,201,8N5,4NW00
2017-03-06 03:00:0012,197,91024,103,8NW8,8W00
2017-03-06 02:00:0012,996,51024,003,7W9,6SW00
2017-03-06 01:00:0013,996,11024,202,6SW6,9W00
2017-03-06 00:00:0013,996,11024,302,0W8,9W00
2017-03-05 23:00:0013,896,41024,404,9W8,9W00
2017-03-05 22:00:0013,594,11024,005,1W11,1W00
2017-03-05 21:00:0014,392,31023,106,2NW15,0N00
2017-03-05 20:00:0015,388,11022,506,2NW15,9NW00
2017-03-05 19:00:0016,086,01022,106,0NW14,5NW50
2017-03-05 18:00:0016,783,41021,308,0NW16,4NW560,1
2017-03-05 17:00:0017,580,71020,6010,3NW21,5NW1500,6
2017-03-05 16:00:0018,478,51020,108,9NW23,6NW1951,0
2017-03-05 15:00:0018,778,01019,809,5NW25,9NW2801,9
2017-03-05 14:00:0018,978,51019,8011,4NW27,3NW3222,3
2017-03-05 13:00:0019,081,01020,108,9W22,3W3612,5
2017-03-05 12:00:0018,186,21020,208,7NW20,4NW3602,5
2017-03-05 11:00:0016,795,41020,20,27,7W18,6W2841,5
2017-03-05 10:00:0016,098,41020,106,0W17,9NW1780,7
2017-03-05 09:00:0015,099,31019,904,2W9,5W1330,2
2017-03-05 08:00:0014,099,11019,10,63,2W9,8SW180,0
2017-03-05 07:00:0013,798,61018,50,24,0NW10,3W00
2017-03-05 06:00:0013,898,41017,803,8W12,5NW00
2017-03-05 05:00:0013,697,91017,602,7W7,0W00
2017-03-05 04:00:0013,596,41017,305,0SW11,2W00
2017-03-05 03:00:0013,294,11017,505,8SW13,9W00
2017-03-05 02:00:0012,791,71017,303,4W10,1SW00
2017-03-05 01:00:0012,191,41017,502,8W7,3W00
2017-03-05 00:00:0011,392,71017,303,1W8,5W00
2017-03-04 23:00:0011,191,71016,805,6W11,1W00
2017-03-04 22:00:0011,489,81016,204,3W10,2SW00
2017-03-04 21:00:0011,787,31015,104,2SW8,6SW00
2017-03-04 20:00:0011,983,61014,004,0W10,8W00
2017-03-04 19:00:0012,974,81012,408,6NW24,0N40
2017-03-04 18:00:0014,170,61011,4016,2NW39,4NW220,1
2017-03-04 17:00:0016,266,11009,5017,6NW39,6NW1090,6
2017-03-04 16:00:0018,866,01008,3014,4NW31,0NW5041,7
2017-03-04 15:00:0019,766,11007,2014,2NW31,9NW6232,9
2017-03-04 14:00:0019,167,61006,6015,8NW34,9NW6893,7
2017-03-04 13:00:0017,879,31006,1014,9NW30,6W5593,3
2017-03-04 12:00:0015,690,31006,2016,6NW35,1W4072,0
2017-03-04 11:00:0014,996,11006,0015,6W34,5W2831,1
2017-03-04 10:00:0014,399,31005,80,215,0W34,3W1690,6
2017-03-04 09:00:0014,0100,01005,6010,8W28,2W720,1
2017-03-04 08:00:0013,5100,01005,4118,2W47,0SW90,0
2017-03-04 07:00:0013,0100,01005,61,825,5W55,6W00
2017-03-04 06:00:0012,699,81006,03,824,8W55,2W00
2017-03-04 05:00:0012,299,61007,53,219,3SW41,3W00
2017-03-04 04:00:0011,799,61008,90,815,7SW37,6W00
2017-03-04 03:00:0011,599,81010,30,410,4W29,2W00
2017-03-04 02:00:0010,899,71011,81,49,4W24,9SW00
2017-03-04 01:00:0010,099,41013,10,64,5W21,7W00
2017-03-04 00:00:009,599,11013,90,62,7W9,7NW00
2017-03-03 23:00:009,298,51014,10,44,4W11,7W00
2017-03-03 22:00:009,497,51014,10,85,5W26,4NW00
2017-03-03 21:00:009,294,11013,815,7W15,3W00
2017-03-03 20:00:009,193,21013,309,6W25,8NW00
2017-03-03 19:00:009,394,11012,6010,3W24,9W70
2017-03-03 18:00:009,894,01011,71,212,0W33,8W690,0
2017-03-03 17:00:0012,572,21010,81,419,4NW42,0W1280,2
2017-03-03 16:00:0012,474,21010,60,215,5W46,6W4771,3
2017-03-03 15:00:0013,560,61010,50,418,3NW40,5NW3281,4
2017-02-27 10:00:0011,889,41020,801,7S6,3SW1360,3
2017-03-03 14:00:0013,765,81010,2022,7NW52,3NW5102,3
2017-03-03 09:00:0010,095,41009,7116,7NW42,6NW270,0
2017-03-03 08:00:0013,082,81008,92,613,8W38,5W70
2017-03-03 07:00:0012,682,11009,4010,0SW29,2SW00
2017-03-03 06:00:0011,088,51009,804,3SW11,5SW00
2017-03-03 05:00:0010,290,31010,102,4SE8,7SE00
2017-03-03 04:00:009,789,91011,201,9NE5,2SE00
2017-03-03 03:00:009,590,01012,302,2E7,7N00
2017-03-03 02:00:009,690,41013,402,3E6,0E00
2017-03-03 01:00:008,894,11014,101,3N3,9N00
2017-03-02 18:00:0015,964,11013,609,8W17,6W240,1
2017-03-02 14:00:0019,853,41015,1010,8SW17,7S6603,7
2017-03-02 09:00:0011,085,71019,303,0NE7,4N2190,3
2017-03-02 08:00:006,898,11018,902,9N6,2N490,0
2017-03-02 07:00:006,897,71018,902,5NE5,6N00
2017-03-02 06:00:007,397,41018,503,5N6,0N00
2017-03-02 05:00:007,497,11018,603,2N7,1N00
2017-03-02 04:00:007,695,81018,503,5N6,0N00
2017-03-02 03:00:008,194,11018,804,2N6,5N00
2017-03-02 02:00:008,493,51019,304,7N7,5N00
2017-03-02 01:00:008,592,61019,604,3N7,1N00
2017-03-02 00:00:009,190,91019,802,3N4,7NW00
2017-03-01 23:00:009,789,31019,703,4N7,1N00
2017-03-01 22:00:0010,386,81019,402,1NW11,3NW00
2017-03-01 21:00:0011,482,41018,703,7NW8,6NW00
2017-03-01 20:00:0012,776,41018,205,1NW11,4NW00
2017-03-01 19:00:0015,069,21017,606,9NW20,1NW30
2017-03-01 18:00:0017,061,71017,106,9N16,0N330,1
2017-03-01 17:00:0018,160,31016,707,3NW19,8N1190,5
2017-03-01 16:00:0019,358,71016,909,0SW17,8SW4871,6
2017-03-01 15:00:0019,953,31017,3010,2SW18,7SW5722,9
2017-03-01 14:00:0019,350,31017,8010,9SW21,4SW6573,8
2017-03-01 13:00:0019,151,11018,5010,0SW21,8S6854,0
2017-03-01 12:00:0017,952,71019,405,2SE14,8S6153,4
2017-03-01 11:00:0016,168,91019,804,4SE10,4SE5072,3
2017-03-01 10:00:0013,780,11020,401,9E6,3E3701,1
2017-03-01 09:00:009,596,51020,901,6N6,9N2250,2
2017-03-01 08:00:005,499,41020,701,1NE3,5N480,0
2017-03-01 07:00:005,399,11020,301,3NE3,5E00
2017-03-01 06:00:005,799,01020,201,2NE10,6NE-10
2017-03-01 05:00:005,998,61020,001,3NE4,0NE00
2017-03-01 04:00:006,298,31020,001,2NE6,2NE00
2017-03-01 03:00:006,697,91020,200,5E3,0E00
2017-03-01 02:00:007,197,31020,601,3NE4,2N00
2017-03-01 01:00:007,796,61020,802,1NE4,3E00
2017-03-01 00:00:008,595,81021,001,6N4,3N-10
2017-02-28 23:00:009,194,31021,003,2N7,5N00
2017-02-28 22:00:009,793,41020,504,4NW9,9NW00
2017-02-28 21:00:0010,290,31019,903,9NW9,0NW00
2017-02-28 20:00:0011,384,31019,305,1NW11,2NW00
2017-02-28 19:00:0013,474,11018,606,8NW14,3NW70
2017-02-28 18:00:0014,965,61018,109,2NW23,1NW450,0
2017-02-28 17:00:0015,964,01017,809,5NW23,3NW1070,4
2017-02-28 16:00:0017,061,81017,809,3NW23,1NW2301,0
2017-02-28 15:00:0016,864,91017,908,2NW18,4NW2901,5
2017-02-28 14:00:0016,168,21018,408,5NW21,7NW2581,4
2017-02-28 13:00:0016,063,41019,009,4NW19,5NW1991,1
2017-02-28 12:00:0016,164,71019,106,9NW18,1N2031,0
2017-02-28 11:00:0015,375,21019,305,9NW12,7N2120,9
2017-02-28 10:00:0013,888,61019,502,5N10,0NW2470,5
2017-02-28 09:00:0010,998,61019,801,6E5,8NE910,1
2017-02-28 08:00:0010,399,11019,401,5E6,5NE150,0
2017-02-28 07:00:0010,299,01019,000,7NE2,8E00
2017-02-28 06:00:0010,098,71018,800,5E2,6N00
2017-02-28 05:00:009,998,11018,500,8E3,1E00
2017-02-28 04:00:0010,297,51018,500,9SE3,2NE00
2017-02-28 03:00:0010,593,71018,60,21,5NW7,7NW00
2017-02-28 02:00:009,288,51019,301,9N8,2NW00
2017-02-28 01:00:008,889,71019,801,5NE4,7SE00
2017-02-28 00:00:009,286,71019,800,4SE2,1E00
2017-02-27 23:00:0010,082,01019,601,5W4,4W00
2017-02-27 22:00:0011,775,31019,503,3NW9,8NW00
2017-02-27 21:00:0012,674,81019,104,9NW13,7NW00
2017-02-27 20:00:0012,677,51018,705,7NW14,3NW00
2017-02-27 19:00:0013,376,01018,307,2NW20,0NW40
2017-02-27 18:00:0014,371,91018,008,6NW21,6NW250,0
2017-02-27 17:00:0016,163,01017,7010,6NW25,3NW910,4
2017-02-27 16:00:0019,052,91017,609,4W20,3W5101,3
2017-02-27 15:00:0019,253,61017,808,3W19,3NW4712,0
2017-02-27 14:00:0019,053,91018,109,1NW20,3N6042,9
2017-02-27 13:00:0017,165,61019,407,0NW23,3N4252,2
2017-02-27 12:00:0015,779,41020,205,8SW14,7SW2161,1
2017-02-27 11:00:0015,182,31020,103,3SW9,1W2781,1
2017-02-27 10:00:0011,889,41020,801,7S6,3SW1360,3
2017-02-27 09:00:0010,095,41020,700,9E3,0E830,1
2017-02-27 08:00:008,498,01020,300,4N1,9NE130,0
2017-02-27 07:00:007,698,31020,100,7N4,2NE00
2017-02-27 06:00:007,398,11019,901,5N6,1NW00
2017-02-27 05:00:007,397,81019,902,5E6,0E00
2017-02-27 04:00:007,297,21020,102,3NE4,8E00
2017-02-27 03:00:007,696,61020,101,1N4,5N00,0
2017-02-27 02:00:007,995,61020,300,4N2,7SE00,0
2017-02-27 01:00:008,394,61020,301,6NW4,0SW00,0
2017-02-27 00:00:008,893,31020,602,1NE4,3NE00
2017-02-26 23:00:009,192,51020,402,9N7,3N-10
2017-02-26 22:00:009,790,51020,102,5NW7,3NW00
2017-02-26 21:00:0010,586,61019,604,3NW11,0NW00
2017-02-26 20:00:0011,880,71019,206,6NW17,1NW00
2017-02-26 19:00:0012,678,41018,808,9NW20,7NW30
2017-02-26 18:00:0014,272,21018,4010,5NW32,4NW240,0
2017-02-26 17:00:0016,266,11018,1010,3W22,2NW1070,4
2017-02-26 16:00:0018,456,21018,108,9SW17,5SW4331,4
2017-02-26 15:00:0019,353,41018,409,3SW20,6W5692,6
2017-02-26 14:00:0018,653,91018,806,6SW18,6S6433,3
2017-02-26 13:00:0017,558,21020,107,2SW20,4SW5993,2
2017-02-26 12:00:0016,161,31021,003,0SW10,9S3031,8
2017-02-26 11:00:0015,566,11021,503,9N9,6N3271,4
2017-02-26 10:00:0013,672,71022,001,9N8,0NE2410,7
2017-02-26 09:00:0011,582,31021,902,1N5,7N790,1
2017-02-26 08:00:0010,188,41021,401,9NW9,3N130
2017-02-26 07:00:009,690,01020,802,3NW4,7NW00
2017-02-26 06:00:0010,187,11020,403,1NW7,5NW00
2017-02-26 05:00:0010,686,71020,003,3NW9,0N00
2017-02-26 04:00:0011,786,61019,802,4NW8,4NW00
2017-02-26 03:00:0012,387,11020,101,3NW3,2NW00
2017-02-26 02:00:0012,885,31020,400,5N7,4N00
2017-02-26 01:00:0013,084,11020,900,8NE2,7NE00
2017-02-26 00:00:0013,183,41021,000,9NE8,2SE-10
2017-02-25 23:00:0013,381,41020,501,5NW3,5NW00
2017-02-25 22:00:0013,779,71020,202,9NW13,0NW-10
2017-02-25 21:00:0013,982,91020,104,4NE11,9E-10
2017-02-25 20:00:0013,779,71019,605,1N10,6NW-10
2017-02-25 19:00:0013,877,21018,607,2NW15,6NW40
2017-02-25 18:00:0015,969,21018,007,5NW27,9NW500,0
2017-02-25 17:00:0017,466,11017,908,7SW17,9SW1400,3
2017-02-25 16:00:0018,264,01017,608,8SW16,6SW2351,0
2017-02-25 15:00:0020,357,31017,506,7SW16,5SW5892,5
2017-02-25 14:00:0019,260,91017,804,8SW13,5N5663,0
2017-02-25 13:00:0017,767,11018,806,0SW11,0S3502,0
2017-02-25 12:00:0016,969,51019,103,1W8,4NW2731,6
2017-02-25 11:00:0015,677,91019,303,6NW10,0NW2481,1
2017-02-25 10:00:0013,286,21019,601,9N5,4N1570,4
2017-02-25 09:00:0011,094,31019,501,2NE4,3NW940,1
2017-02-25 08:00:009,898,01018,901,2NE3,8E130
2017-02-25 07:00:009,298,71018,601,2N4,5N00
2017-02-25 06:00:008,699,01018,301,7N5,9NW-10
2017-02-25 05:00:007,798,91017,901,3NW3,6NW00
2017-02-25 04:00:007,898,51017,801,3N5,6N00
2017-02-25 03:00:008,098,11017,802,2N5,4N-10
2017-02-25 02:00:008,397,31017,801,2N3,5N00
2017-02-25 01:00:008,996,71018,002,1E4,7NE00
2017-02-25 00:00:009,495,41017,901,7NE3,2E00
2017-02-24 23:00:0010,093,71017,201,3NW5,5NW00
2017-02-24 22:00:0010,791,11016,503,3NW7,3NW00
2017-02-24 21:00:0011,887,51016,004,9NW12,8NW00
2017-02-24 20:00:0012,784,61015,409,5NW22,3NW00
2017-02-24 19:00:0013,681,21014,6011,7NW30,7NW50
2017-02-24 18:00:0015,374,71013,7011,1NW25,5NW370,0
2017-02-24 17:00:0017,070,01012,9012,5NW24,4NW1230,3
2017-02-24 13:00:0018,762,01013,605,9SE12,4S5982,8
2017-02-24 11:00:0016,569,61014,306,8N17,2NE4491,5
2017-02-24 10:00:0014,579,91015,003,0NE15,4NE3180,6
2017-02-24 09:00:0010,799,51015,301,2W5,5W1480,1
2017-02-24 08:00:008,699,81014,703,2N7,7N180,0
2017-02-24 07:00:008,799,71014,104,0NW9,5N00
2017-02-24 06:00:009,499,51014,002,4N8,8E00
2017-02-24 05:00:0010,099,51013,804,5N16,4NE00
2017-02-24 04:00:0010,399,41013,501,9NW6,0NW00
2017-02-24 03:00:0010,999,11013,301,8N6,4NW00
2017-02-24 02:00:0011,798,81013,201,9NE8,2E00
2017-02-24 01:00:0012,098,31013,401,7NE6,0NE00
2017-02-24 00:00:0012,097,21013,202,8N8,9N00
2017-02-23 23:00:0012,295,91012,801,9NW4,7W00
2017-02-23 22:00:0013,096,31012,401,4W3,5SW00
2017-02-23 21:00:0014,195,71011,802,5SW10,7SW00
2017-02-23 20:00:0014,493,51011,402,9SW7,5S00
2017-02-23 16:00:0017,676,11009,905,0S11,8SE2080,3
2017-02-23 08:00:0013,079,11010,503,4E12,4NW210
2017-02-23 07:00:0013,277,21010,202,3SE7,9E00
2017-02-23 06:00:0013,376,81010,003,8SE11,0SE00
2017-02-23 05:00:0013,176,81009,906,2N18,3N00
2017-02-23 04:00:0012,086,41010,904,8NW13,4NW00
2017-02-23 03:00:0011,291,51011,802,8N7,9NW00
2017-02-23 02:00:0011,489,61012,601,8E9,5NE-10
2017-02-23 01:00:0011,587,81012,201,5NW10,2NW00
2017-02-23 00:00:0011,985,51012,302,2SW9,5NW00
2017-02-22 23:00:0012,183,21012,203,1NW8,9NW00
2017-02-22 22:00:0012,681,31012,404,4NW10,4NW00
2017-02-22 21:00:0013,479,01012,505,5NW13,1NW00
2017-02-22 20:00:0014,177,01012,607,1NW15,2NW00
2017-02-22 12:00:0018,856,41014,807,1E13,8E3921,6
2017-02-22 09:00:009,397,21016,803,6NE8,6NE1160,1
2017-02-22 08:00:007,898,51016,402,2NE6,8E120
2017-02-22 07:00:007,898,31016,001,9E4,1E00
2017-02-22 06:00:007,997,91015,902,2E4,4NE-10
2017-02-22 05:00:008,197,41015,801,3NE3,4E00
2017-02-22 04:00:008,496,61016,102,1E7,2NE00
2017-02-22 03:00:008,795,21016,602,0NE4,9NE00
2017-02-22 02:00:009,294,21016,801,8E4,2NE-10
2017-02-22 01:00:009,692,51016,901,6NE4,7NE-10
2017-02-22 00:00:0010,290,51016,901,8E6,2NE00
2017-02-21 23:00:0010,987,71016,701,0NE4,4NE00
2017-02-21 22:00:0012,282,41016,301,5N4,4N00
2017-02-21 21:00:0013,576,91016,202,7NE5,7NE00
2017-02-21 20:00:0014,373,41015,603,5NE7,2NE00
2017-02-21 19:00:0015,170,41014,906,3SE16,9E30
2017-02-21 18:00:0016,065,91014,006,5SE14,9SE460,0
2017-02-21 17:00:0017,458,91013,509,7SE20,4S1380,2
2017-02-21 16:00:0018,653,51013,409,2SE19,5S3070,9
2017-02-21 13:00:0019,051,91015,2010,8SE22,0SE5412,2
2017-02-21 10:00:0015,063,11016,605,7NE18,9E2520,5
2017-02-21 09:00:0011,874,11016,803,9E11,2NE1170,1
2017-02-21 08:00:0010,478,31016,405,3E16,4E170
2017-02-21 07:00:0010,577,41016,006,4E15,4E00
2017-02-21 06:00:0010,875,51015,607,1E13,2E00
2017-02-21 05:00:0010,080,31015,705,5NE15,3NE00
2017-02-21 04:00:0011,274,11016,305,8NE14,9NE-10
2017-02-21 03:00:009,385,51017,105,8NE16,9NE00
2017-02-21 02:00:008,988,21017,402,7E5,7E00
2017-02-21 01:00:009,586,31017,402,9NE5,0NE-10
2017-02-21 00:00:0010,282,81017,30,22,6E12,1NE00
2017-02-20 23:00:0011,176,81017,203,5NE8,8NE-10
2017-02-20 22:00:0011,774,51017,204,7NE11,1NE00
2017-02-20 21:00:0011,577,01017,203,5E8,5E-10
2017-02-20 20:00:0012,271,21016,602,5E10,7E00
2017-02-20 19:00:0013,960,21016,003,5NE9,7E20
2017-02-20 18:00:0015,154,51015,706,0NE12,5NE420,0
2017-02-20 15:00:0016,552,61015,708,7NE21,4NE2190,7
2017-02-20 14:00:0016,751,51015,909,2NE21,3NE2731,1
2017-02-20 13:00:0015,353,81016,9012,3NE24,1NE4001,7
2017-02-20 12:00:0013,857,61017,8011,0NE27,7NE3461,3
2017-02-20 10:00:0010,969,51018,708,8NE23,0E1570,3
2017-02-20 09:00:009,674,81018,709,7NE22,1NE500,0
2017-02-20 08:00:009,476,61018,309,0NE17,4NE110
2017-02-20 07:00:009,578,11018,4010,2NE20,7NE00
2017-02-20 06:00:009,979,31018,606,9NE14,1NE00
2017-02-20 05:00:0010,280,61018,406,0NE14,0NE00
2017-02-20 04:00:0010,281,81018,504,8NE12,4N00
2017-02-20 03:00:0010,583,11018,806,1NE15,3NE00
2017-02-20 02:00:009,888,51019,104,2NE12,3NE00
2017-02-20 01:00:009,290,71019,503,7N8,3NE00
2017-02-20 00:00:0010,086,71019,303,0N5,8N00
2017-02-19 23:00:0011,879,81019,502,3S5,8NW00
2017-02-19 22:00:0013,371,41019,503,2NE9,1NE00
2017-02-19 21:00:0013,369,81019,106,1NE15,5NE-10
2017-02-19 20:00:0013,370,81018,305,3NE11,3N00
2017-02-19 19:00:0014,568,41017,708,2E18,2NE20
2017-02-19 18:00:0015,764,11017,1010,6E24,3NE220,0
2017-02-19 17:00:0015,665,91016,8010,2NE27,7E720,2
2017-02-19 16:00:0015,963,51016,5011,0NE22,6E600,1
2017-02-19 15:00:0016,956,61016,1015,8E35,9E2230,8
2017-02-19 14:00:0017,358,41015,9016,4E40,3E4431,7
2017-02-19 13:00:0016,661,71015,8014,0E30,1E5412,1
2017-02-19 12:00:0014,569,31016,6013,1NE27,0E5531,8
2017-02-19 11:00:0012,078,91017,4015,0NE30,6N3791,1
2017-02-19 10:00:0010,087,91017,7012,7NE24,8NE1770,4
2017-02-19 09:00:008,895,11017,3011,8NE24,8NE650,0
2017-02-19 08:00:008,397,81016,809,0N19,9NE60
2017-02-19 07:00:008,299,21016,608,3NE19,4NE00
2017-02-19 06:00:008,799,01015,704,2NW10,8NW00
2017-02-19 05:00:009,698,71015,80,23,0NW9,0W00
2017-02-19 04:00:009,897,91016,40,43,3S12,6W00
2017-02-19 03:00:0010,195,61017,11,24,0N9,9N00
2017-02-19 02:00:0010,788,41017,214,6NE12,8NE00
2017-02-19 01:00:0010,883,31017,601,8NE8,6N00
2017-02-19 00:00:0012,180,11017,706,9NW17,8N00
2017-02-18 23:00:0012,679,21018,1011,5NW23,7N00
2017-02-18 22:00:0012,481,31018,309,0NW23,4NW00
2017-02-18 21:00:0011,883,61018,407,6NW17,9N00
2017-02-18 20:00:0012,380,91018,406,8NW16,2N00
2017-02-18 19:00:0013,278,91018,308,7NW24,1NW20
2017-02-18 18:00:0014,874,91017,9010,4NW26,3N290,0
2017-02-18 17:00:0016,569,01017,9013,5NW29,0N1090,3
2017-02-18 16:00:0017,662,81017,9014,3NW31,2NW2751,0
2017-02-18 15:00:0018,458,21018,5011,7NW27,8NW3491,6
2017-02-18 14:00:0018,556,51019,5010,8NW24,9NW3241,8
2017-02-18 13:00:0019,259,81020,3012,2NW25,5NW5562,6
2017-02-18 12:00:0018,860,71021,007,4NW23,6NW4412,0
2017-02-18 11:00:0017,764,71021,403,8NW10,1W4501,6
2017-02-18 10:00:0014,179,21022,602,1N8,3N3290,6
2017-02-18 09:00:008,998,81023,702,6NE5,6NE1660,1
2017-02-18 08:00:006,899,71023,502,3N11,3NW240,0
2017-02-18 07:00:007,099,61023,103,2N9,1NW00
2017-02-18 06:00:007,299,41022,602,8N10,8N00
2017-02-18 05:00:007,699,11022,704,5NE7,5NE00
2017-02-18 04:00:008,098,71022,803,4N6,8N00
2017-02-18 03:00:008,298,11022,904,1N8,1NW00
2017-02-18 02:00:008,797,31022,902,2N5,6N00
2017-02-18 01:00:009,796,11023,601,6NE5,1SE00
2017-02-18 00:00:0010,295,21023,904,2NW15,2NW00
2017-02-17 23:00:0010,194,81024,004,2NW15,1NW00
2017-02-17 22:00:0010,992,71023,503,6NW10,0N00
2017-02-17 21:00:0012,188,01023,103,0NW6,3NW00
2017-02-17 20:00:0013,184,71022,803,0W7,5W00
2017-02-17 19:00:0013,979,71022,403,7W12,7SW20
2017-02-17 18:00:0015,472,41021,903,9SW9,6SW530,0
2017-02-17 17:00:0016,169,11021,308,2S15,7SE1060,4
2017-02-17 16:00:0017,362,91020,809,0S17,5S2501,1
2017-02-17 15:00:0019,062,21021,30,28,6S16,4SE5072,3
2017-02-17 12:00:0018,059,01023,303,8SE8,7SE5012,5
2017-02-17 09:00:008,899,41025,601,7E9,9E1610,1
2017-02-17 08:00:006,999,41025,502,5E4,9E160
2017-02-17 07:00:006,798,91025,202,2E4,2NE00
2017-02-17 06:00:006,898,61025,102,3E3,8E-10
2017-02-17 05:00:007,298,31025,201,8E4,2NE00
2017-02-17 04:00:007,597,91025,102,2E9,1E00
2017-02-17 03:00:007,997,61025,102,1E6,2E00
2017-02-17 02:00:008,397,11025,302,2E4,7NE-10
2017-02-17 01:00:008,796,21025,502,7E10,6E00
2017-02-17 00:00:009,494,91025,502,0E9,1E00
2017-02-16 23:00:0010,192,61025,501,9E7,0E00
2017-02-16 22:00:0011,189,51025,602,4NE6,2NE00
2017-02-16 21:00:0012,385,21025,004,2NE7,2NE00
2017-02-16 20:00:0013,480,51024,603,7E6,9E00
2017-02-16 19:00:0015,273,51023,906,9E14,9SE20
2017-02-16 18:00:0016,468,41023,3011,8SE29,6SE220,0
2017-02-16 17:00:0017,165,51022,8015,8SE30,8SE550,4
2017-02-16 16:00:0018,062,61022,5016,8SE34,5SE2721,3
2017-02-16 14:00:0018,263,71022,6017,0SE29,7E5713,0
2017-02-16 13:00:0017,864,21023,2016,5SE31,8SE5042,8
2017-02-16 11:00:0015,666,51024,0010,1E27,3SE3201,4
2017-02-16 10:00:0013,468,41024,607,5E14,5E1130,4
2017-02-16 09:00:0012,370,31024,406,4E14,4E610,0
2017-02-16 08:00:0011,572,21023,906,3E10,7E100
2017-02-16 07:00:0011,970,51023,606,1E12,4E-10
2017-02-16 06:00:0012,173,31023,306,7E16,8NE00
2017-02-16 05:00:0012,075,51023,108,0E14,6E00
2017-02-16 04:00:0012,176,01023,107,5E14,6E00
2017-02-16 03:00:0012,277,51023,207,3E12,2NE00
2017-02-16 02:00:0011,982,91023,206,4E13,3E00
2017-02-16 01:00:0012,382,51023,306,0E13,2NE00
2017-02-16 00:00:0012,880,51023,407,6E14,0E00
2017-02-15 23:00:0012,481,31023,705,7NE13,7NE00
2017-02-15 22:00:0012,580,31023,204,9E9,9E00
2017-02-15 21:00:0013,276,41022,604,9NE10,9NE00
2017-02-15 20:00:0014,173,61021,904,9E9,6E00
2017-02-15 19:00:0015,666,11021,008,4SE17,3SE10
2017-02-15 18:00:0016,762,01020,5010,0SE18,6SE540,0
2017-02-15 17:00:0017,260,41020,0014,7SE26,2E1250,3
2017-02-15 16:00:0018,057,91019,6018,3SE41,1SE2611,0
2017-02-15 15:00:0018,357,71019,5020,5SE43,1SE4862,1
2017-02-15 14:00:0018,158,11019,3022,2SE47,5SE5452,8
2017-02-15 12:00:0017,061,61020,1020,0SE37,6SE4802,3
2017-02-15 09:00:0010,988,51021,805,2NE13,2E910,1
2017-02-15 08:00:0010,192,01021,205,0E11,4E90
2017-02-15 07:00:0010,590,51020,805,7E13,7NE00
2017-02-15 06:00:0010,395,81020,506,2E11,7E00
2017-02-15 05:00:009,999,21020,306,1E13,4NE00
2017-02-15 04:00:0010,199,61020,503,8E7,6E00
2017-02-15 03:00:0010,599,51020,903,1NE7,3NE00
2017-02-15 02:00:0011,199,51021,202,8NE7,4E00
2017-02-15 01:00:0011,399,31021,303,9E8,2E00
2017-02-15 00:00:0011,399,01021,204,8E10,4E00
2017-02-14 23:00:0012,098,71021,103,8E9,3E00
2017-02-14 22:00:0012,598,41020,803,9NE7,9E00
2017-02-14 21:00:0013,197,61020,404,4SE12,8SE00
2017-02-14 20:00:0013,895,61019,805,1SE10,5E00
2017-02-14 19:00:0014,692,81018,906,7SE14,6SE10
2017-02-14 15:00:0019,174,11015,7010,0S21,7S4852,2
2017-02-14 14:00:0018,876,31015,409,5S19,7S5583,0
2017-02-14 12:00:0016,887,51015,3011,9S23,5SE4722,2
2017-02-14 10:00:0012,599,21017,50,83,1E9,3SE1970,4
2017-02-14 08:00:0010,399,91016,703,4E7,5E20
2017-02-14 07:00:0010,299,61016,102,9NE6,5NE00
2017-02-14 06:00:0010,599,51015,403,6E8,9E00
2017-02-14 05:00:0010,599,21014,702,0NE5,4NE00
2017-02-14 04:00:0011,498,71014,402,8NE11,5S00
2017-02-14 03:00:0011,798,11014,206,2S12,9SW00
2017-02-14 02:00:0012,095,01014,22,411,1S31,5S00
2017-02-14 01:00:0013,288,01014,208,9S19,7S00
2017-02-14 00:00:0012,988,41014,209,6S21,2S00
2017-02-13 23:00:0012,195,01014,308,3S17,2S00
2017-02-13 22:00:0012,392,51014,20,26,4S14,9SW00
2017-02-13 21:00:0011,991,11013,805,1S12,2S00
2017-02-13 20:00:0013,186,61013,105,9SW11,7SW00
2017-02-13 19:00:0013,683,11012,705,7S11,4SW10
2017-02-13 18:00:0014,274,91012,004,4SW17,6W210,0
2017-02-13 17:00:0015,168,01011,008,2SW17,4SW470,2
2017-02-13 16:00:0017,165,11009,60,212,8SW24,6SW2781,0
2017-02-13 15:00:0018,861,61008,3011,5SW24,6SW5442,0
2017-02-13 14:00:0017,867,21007,3012,1SW26,5SW5532,5
2017-02-13 13:00:0016,576,31007,2011,7SW28,9SW5022,2
2017-02-13 09:00:009,9100,01007,00,21,4W6,3NW680,0
2017-02-13 08:00:008,3100,01006,11,23,8W24,4W60
2017-02-13 07:00:007,5100,01004,701,7NE8,5NE00
2017-02-13 06:00:008,4100,01003,003,6W9,5W00
2017-02-13 05:00:009,0100,01001,605,8W13,0NW00
2017-02-13 04:00:009,1100,01000,504,6W10,0W00
2017-02-13 03:00:0010,2100,0999,30,64,4W12,6W00
2017-02-13 02:00:0010,4100,0998,007,1SW18,9SW00
2017-02-13 01:00:0010,6100,0996,90,47,8SW19,7W00
2017-02-13 00:00:0010,4100,0995,826,0W16,0W00
2017-02-12 23:00:0010,4100,0994,905,7W14,3NW00
2017-02-12 22:00:0010,3100,0993,702,9N12,0NE00
2017-02-12 21:00:0010,699,8993,403,3N7,5N00
2017-02-12 20:00:0011,099,6993,70,22,0NE6,4SW00
2017-02-12 19:00:0011,499,3993,40,85,3S15,0S00
2017-02-12 18:00:0011,698,6993,21,29,7S22,7S100
2017-02-12 17:00:0012,198,4992,90,811,9S26,2S350,0
2017-02-12 16:00:0012,698,1993,0112,8S27,1S430,0
2017-02-12 15:00:0013,196,8993,41,27,7S19,6S540,1
2017-02-12 14:00:0014,186,2993,02,210,9S26,4SW1290,5
2017-02-12 13:00:0015,483,4993,508,5SW17,6S2761,2
2017-02-12 12:00:0013,891,9994,507,9SW16,9S1751,0
2017-02-12 11:00:0013,290,6994,80,69,7SW28,0SW1430,5
2017-02-12 10:00:0012,789,8994,90,611,4SW24,4SW980,2
2017-02-12 09:00:0012,585,8994,4013,3SW30,3SW460,0
2017-02-12 08:00:0012,285,1993,6014,3SW35,4SW50
2017-02-12 07:00:0012,585,5993,0018,4SW37,8SW00
2017-02-12 06:00:0012,887,8992,7018,1SW38,3S00
2017-02-12 05:00:0012,192,2992,6014,4SW28,7SW00
2017-02-12 04:00:0011,894,7992,6015,9S32,3SW00
2017-02-12 03:00:0011,496,7992,90,410,2S33,5SW00
2017-02-12 02:00:0010,597,8993,706,2E16,2NE00
2017-02-12 01:00:0010,696,3994,407,1E17,5E00
2017-02-12 00:00:0011,095,9995,209,8SE22,2SE00
2017-02-11 23:00:0010,796,2996,2011,3SE23,1SE00
2017-02-11 22:00:0010,598,9996,909,0SE23,8S00
2017-02-11 21:00:0010,898,7997,30,27,9E17,1E00
2017-02-11 20:00:0010,997,9997,8010,6E25,4E00
2017-02-11 19:00:0011,397,9998,00,814,8SE27,5E00
2017-02-11 18:00:0011,497,1998,12,619,8SE39,6SE160,0
2017-02-11 17:00:0010,297,9998,63,414,6E37,5SE230,0
2017-02-11 16:00:0010,692,5999,4219,1E36,9E1580,3
2017-02-11 15:00:0010,993,11000,1016,9E41,8SE2290,8
2017-02-11 14:00:0010,097,31001,1013,6E29,8E2410,9
2017-02-11 13:00:009,298,71002,53,415,0SE28,4E520,1
2017-02-11 12:00:009,197,61003,710,211,1SE25,2SE170,0
2017-02-11 10:00:0010,193,61003,60,219,4E48,2E490,0
2017-02-11 09:00:009,297,11004,0015,9E32,4NE330,0
2017-02-11 08:00:008,493,21004,21,812,7E24,9E10
2017-02-11 07:00:007,993,61004,8011,4E19,6E00
2017-02-11 06:00:008,590,61004,90,210,0E18,3E00
2017-02-11 05:00:008,687,51005,406,7E15,4E00
2017-02-11 04:00:008,291,11005,906,8NE16,2NE00
2017-02-11 03:00:008,491,31006,507,7E18,8E00
2017-02-11 02:00:007,794,11007,007,8NE15,2E00
2017-02-11 01:00:007,893,31007,40,46,8N15,1N00
2017-02-11 00:00:008,191,81007,50,24,8E10,7NW00
2017-02-10 23:00:008,190,21007,806,3E12,6E00
2017-02-10 22:00:007,789,21008,004,3NE14,6N00
2017-02-10 21:00:007,688,71008,003,8E8,7E00
2017-02-10 19:00:008,185,91007,604,0S13,3SE00
2017-02-10 12:00:008,895,71011,20,22,2NE8,3NW1800,7
2017-02-10 09:00:005,399,31012,304,4E10,9NE1110,0
2017-02-10 08:00:004,799,51012,302,8E6,0NE30
2017-02-10 07:00:004,899,41012,403,2E9,1NE00
2017-02-10 06:00:005,199,11012,502,0NE5,6SE00
2017-02-10 05:00:005,698,91012,603,9N8,5N00
2017-02-10 04:00:006,198,71012,80,21,2NW5,6SW00
2017-02-10 03:00:006,498,51013,402,7NW12,2NW00
2017-02-10 02:00:006,698,11014,001,5NE6,2E00
2017-02-10 01:00:007,297,51014,101,8NW5,7N00
2017-02-10 00:00:007,796,01014,002,7SW5,9SW00
2017-02-09 23:00:008,894,31013,903,0W12,2SW00
2017-02-09 22:00:009,588,81013,904,9NW17,7N00
2017-02-09 21:00:009,790,11014,00,211,0NW26,2NW00
2017-02-09 20:00:0010,591,81014,10,414,4NW34,4NW00
2017-02-09 19:00:0010,980,71013,302,1S31,8NW10
2017-02-09 18:00:0012,671,71013,303,6SE8,4E560,0
2017-02-09 13:00:0015,051,61016,9012,9S25,9S4492,3
2017-02-09 12:00:0015,442,11017,805,1SW16,2S4602,1
2017-02-09 09:00:004,988,31020,902,7NE7,2N1370,1
2017-02-09 08:00:002,894,41021,402,6E7,2SE150
2017-02-08 12:00:0015,347,41025,7010,8E24,2E5512,2
2017-02-08 08:00:008,964,71027,205,1NE19,8NE60
2017-02-08 07:00:009,364,71026,7015,2NE36,1NE00
2017-02-08 06:00:009,464,01026,7015,2NE31,2NE00
2017-02-08 05:00:009,862,51026,8013,7NE26,2NE00
2017-02-08 04:00:009,268,61026,6010,1N26,2N00
2017-02-08 03:00:0010,462,01026,5010,9N22,9N00
2017-02-08 02:00:0010,364,41026,606,9NE19,6NE00
2017-02-08 01:00:0010,369,21026,405,5N15,1N00
2017-02-08 00:00:0011,265,01026,306,5N28,6N-10
2017-02-07 23:00:0012,061,51026,3013,5N26,3N00
2017-02-07 22:00:0012,765,61026,2012,7NE22,8N00
2017-02-07 21:00:0012,779,51025,608,2N20,7NW00
2017-02-07 20:00:0012,882,61025,307,5N17,4NE00
2017-02-07 19:00:0013,680,71024,809,7NE23,2NE00
2017-02-07 18:00:0015,284,01023,7010,1N23,0NE230,0
2017-02-07 17:00:0015,884,61023,009,7NW24,0NW760,1
2017-02-07 10:00:0010,090,01026,601,5E4,8E2160,5
2017-02-07 08:00:005,899,41026,802,0E5,6E110
2017-02-07 07:00:005,899,11026,501,7N8,3N00
2017-02-07 06:00:006,298,91026,401,9E8,3NE00
2017-02-07 05:00:006,598,61026,501,8E3,4E00
2017-02-07 04:00:007,198,31026,801,0N9,2NE00
2017-02-07 03:00:007,798,21026,801,7NE4,3NE00
2017-02-07 02:00:008,398,21026,901,7NE7,4E00
2017-02-07 01:00:008,797,81027,201,4N3,5N00
2017-02-07 00:00:009,197,21027,801,7NE8,8E00
2017-02-06 23:00:009,296,21027,902,1NE4,1E-10
2017-02-06 22:00:009,995,01028,101,8NE4,8W00
2017-02-06 21:00:0010,991,81027,602,5NW9,1NW00
2017-02-06 20:00:0011,688,71027,605,3NW12,3NW00
2017-02-06 19:00:0012,990,81027,105,1W13,0SW00
2017-02-06 18:00:0014,184,11026,708,4SW20,7SW150,0
2017-02-06 15:00:0018,563,71026,007,8SW19,4SW4982,3
2017-02-06 14:00:0017,861,51026,507,6S21,8SW5593,0
2017-02-06 12:00:0015,966,21028,203,9S12,1SW5122,6
2017-02-06 11:00:0013,973,91028,702,6SE5,6SE4171,6
2017-02-06 10:00:0010,984,31030,001,8E5,1E2900,6
2017-02-06 09:00:006,599,31030,701,9NE5,7NE1430,1
2017-02-06 08:00:005,199,21030,702,9E5,6E60
2017-02-06 07:00:005,499,01030,202,6E4,8NE00
2017-02-06 06:00:005,598,61030,002,4E10,2NE00
2017-02-06 05:00:005,898,11029,701,5E3,5NE00
2017-02-06 04:00:006,397,61029,700,9N3,6N00
2017-02-06 03:00:006,896,71030,001,4NE3,5NE-10
2017-02-06 02:00:007,495,71029,901,6NE3,9SW00
2017-02-06 01:00:008,293,51030,302,0E6,5E00
2017-02-06 00:00:008,990,01030,001,8E7,2SE00
2017-02-05 23:00:009,587,11029,504,3NW10,7NW00
2017-02-05 22:00:009,984,41029,203,3W8,6W00
2017-02-05 21:00:0010,581,81028,905,9NW16,2N00
2017-02-05 20:00:0011,079,11028,702,8W9,1W00
2017-02-05 19:00:0012,371,51027,703,7NW12,7NW10
2017-02-05 18:00:0014,262,41026,809,9NW25,1N240,0
2017-02-05 17:00:0015,358,11026,1017,7N34,8N670,2
2017-02-05 16:00:0016,259,41025,4017,7N36,6N2000,9
2017-02-05 15:00:0017,456,81024,5016,8NW37,5NW4191,9
2017-02-05 14:00:0016,958,31024,6019,4NW42,3N3882,3
2017-02-05 13:00:0017,554,61024,4019,5NW42,1N5312,8
2017-02-05 12:00:0016,762,11024,7017,1NW39,9N4012,0
2017-02-05 11:00:0016,467,31023,4016,7NW42,5NW3511,3
2017-02-05 10:00:0015,571,71023,4012,6NW35,7NW2600,5
2017-02-05 09:00:0012,685,31024,10,26,9NW20,1NW920,0
2017-02-05 08:00:0012,386,61023,008,9NW26,3N70
2017-02-05 07:00:0012,793,11022,1011,9NW28,1NW00
2017-02-05 06:00:0012,898,11020,8010,1NW37,4W00
2017-02-05 05:00:0013,097,91020,3010,9NW22,9W00
2017-02-05 04:00:0013,698,11019,5013,1NW26,7NW00
2017-02-05 03:00:0014,098,61019,3014,5NW34,5NW00
2017-02-05 02:00:0014,299,41019,0013,0NW32,3NW00
2017-02-05 01:00:0014,599,81018,8014,5NW33,8NW00
2017-02-05 00:00:0014,999,91018,50,411,4W24,4NW00
2017-02-04 23:00:0014,999,51018,70,88,8W24,7W00
2017-02-04 22:00:0015,299,61018,8011,7W23,9W00
2017-02-04 21:00:0015,299,21018,7013,7SW30,4SW00
2017-02-04 20:00:0015,398,01018,6113,0W24,4SW00
2017-02-04 19:00:0015,595,31018,30,212,5W23,4SW00
2017-02-04 18:00:0016,290,31018,2013,7W29,2W180,0
2017-02-04 17:00:0016,788,01017,9016,1W33,6SW830,1
2017-02-04 16:00:0016,887,91017,7014,3SW32,1W1350,5
2017-02-04 15:00:0016,788,71017,9011,7SW26,1SW1150,6
2017-02-04 14:00:0017,087,71018,1011,4SW26,0SW1541,0
2017-02-04 13:00:0017,785,01018,3013,0SW28,0SW2291,5
2017-02-04 12:00:0018,085,81018,2013,9SW28,7SW4522,3
2017-02-04 11:00:0016,196,31019,3011,6SW24,6W2261,1
2017-02-04 10:00:0015,798,81019,6010,3SW24,0SW1800,4
2017-02-04 09:00:0014,799,71019,509,2SW20,3SW400,0
2017-02-04 08:00:0014,399,51019,009,2SW27,2SW20
2017-02-04 07:00:0014,398,81018,70,29,0SW21,7W00
2017-02-04 06:00:0014,696,51018,60,810,3SW27,2W00
2017-02-04 05:00:0014,792,91018,6010,5SW24,7SW00
2017-02-04 04:00:0014,592,51018,709,7SW21,9W00
2017-02-04 03:00:0014,392,81019,208,5SW24,2W00
2017-02-04 02:00:0014,490,91019,509,0SW19,3SW00
2017-02-04 01:00:0014,490,51019,709,4SW19,5W00
2017-02-04 00:00:0014,390,61019,808,8SW23,2W00
2017-02-03 23:00:0013,991,61020,107,4SW19,0SW00
2017-02-03 22:00:0013,692,71020,107,3W18,6W00
2017-02-03 21:00:0013,692,81020,006,1SW14,2SW00
2017-02-03 20:00:0014,189,51019,707,8W17,5SW00
2017-02-03 19:00:0014,888,01019,107,2SW15,9SW00
2017-02-03 18:00:0015,584,61018,708,4SW20,7W230,0
2017-02-03 17:00:0016,481,61018,409,1SW20,1SW890,2
2017-02-03 16:00:0017,077,61018,2010,7SW27,5SW1830,6
2017-02-03 15:00:0017,675,81018,1013,0SW25,9W2391,2
2017-02-03 14:00:0018,274,01018,3013,4SW26,8SW3862,0
2017-02-03 13:00:0017,874,71018,7012,1SW24,6SW3181,9
2017-02-03 12:00:0017,874,71018,9011,8SW26,5SW3871,8
2017-02-03 11:00:0016,679,61019,6010,3SW22,2SW2721,0
2017-02-03 10:00:0015,382,01020,207,4SW18,8W1680,3
2017-02-03 09:00:0012,889,81020,303,6W9,5NW820,0
2017-02-03 08:00:0011,891,81019,806,1W15,1SW40
2017-02-03 07:00:0011,691,91019,405,0W15,6W00
2017-02-03 06:00:0011,498,01019,405,0W13,0W00
2017-02-03 05:00:0011,599,51019,303,3W15,3W00
2017-02-03 04:00:0011,099,71019,302,8NW11,3NW00
2017-02-03 03:00:009,699,61019,402,7W7,6NW00
2017-02-03 02:00:009,399,21019,801,3W6,9NW00
2017-02-03 01:00:009,998,81019,800,9NW6,1SW00
2017-02-03 00:00:0010,598,71019,703,8SW10,4W00
2017-02-02 23:00:009,997,31019,604,0SW10,1SW00
2017-02-02 22:00:0010,295,81019,601,5SW7,1SW00
2017-02-02 21:00:0010,993,61019,101,8SW9,5SW00
2017-02-02 20:00:0011,889,21018,803,1W8,1SW00
2017-02-02 19:00:0013,083,41018,104,8W11,1NW10
2017-02-02 18:00:0015,074,71017,206,3W14,4W240,0
2017-02-02 17:00:0016,467,41016,508,1NW21,3NW930,2
2017-02-02 14:00:0017,866,51014,7013,6NW32,1NW3461,8
2017-02-02 13:00:0016,881,61015,2012,5NW26,2NW2531,4
2017-02-02 12:00:0016,692,01015,0014,1W32,6W3111,5
2017-02-02 08:00:0014,5100,01014,20,28,9SW29,8W10
2017-02-02 00:00:0014,086,41016,8011,3SW22,6SW00
2017-02-01 12:00:0014,892,91017,907,3S15,4S4962,0
2017-02-01 10:00:0010,599,6998,402,3E9,4SE2440,4
2017-02-01 09:00:007,9100,0989,401,7E6,8N880,0
2017-02-01 08:00:007,0100,0989,202,1E7,1E40
2017-02-01 07:00:007,1100,0997,001,7E10,8SW-10
2017-02-01 06:00:007,6100,01016,30,21,2N4,3NW00
2017-02-01 05:00:008,4100,01016,702,4SE6,1E00
2017-02-01 04:00:009,1100,01016,502,1NW5,3NW00
2017-02-01 03:00:008,8100,01016,301,6W4,4SW00
2017-02-01 02:00:009,2100,01015,702,2W14,2W00
2017-02-01 01:00:009,8100,01014,906,3W14,6W00
2017-02-01 00:00:0010,3100,01014,403,0W7,5NW00
2017-01-31 23:00:0011,7100,01014,807,5NW23,8NW00
2017-01-31 22:00:0011,4100,01014,203,9W13,1NW00
2017-01-31 21:00:0011,4100,01013,203,1W8,0SW00
2017-01-31 20:00:0011,5100,01012,602,4SW8,2W00
2017-01-31 19:00:0012,199,91011,901,8S3,9SW10
2017-01-31 18:00:0012,899,51011,001,4NW4,8W290,0
2017-01-31 17:00:0013,099,41010,702,9N7,9W630,0
2017-01-31 12:00:0014,485,31012,20,412,5S26,1S550,2
2017-01-31 11:00:0014,879,61012,4014,1SE28,4SE880,3
2017-01-31 10:00:0014,381,31012,2011,0SE24,8SE610,1
2017-01-31 09:00:0013,983,01012,2010,5SE20,1SE260,0
2017-01-31 08:00:0013,682,91012,208,8S17,6S10
2017-01-31 07:00:0013,581,51012,1010,2S24,4S00
2017-01-31 06:00:0013,482,21012,309,2S18,6S00
2017-01-31 05:00:0013,480,31012,709,7S21,6S00
2017-01-31 04:00:0013,281,01013,408,1S17,0S00
2017-01-31 03:00:0012,981,51013,907,4S20,1S00
2017-01-31 02:00:0012,684,31014,506,2S14,0S00
2017-01-31 01:00:0011,390,51015,505,8S14,3SW00
2017-01-31 00:00:0010,593,01016,401,7E5,7S00
2017-01-30 23:00:0010,393,31016,801,9NE3,9NE00
2017-01-30 22:00:0011,288,61017,003,9E10,7SE00
2017-01-30 21:00:0012,285,11017,504,0S8,1S00
2017-01-30 20:00:0011,588,51018,002,8SW12,4S00
2017-01-30 19:00:0011,885,51017,803,3SW7,4SE00
2017-01-30 18:00:0013,580,31017,704,1SW11,8SW150,0
2017-01-30 17:00:0014,876,81017,905,5SW11,8S790,2
2017-01-30 16:00:0015,773,61017,807,3SW16,9SW1860,8
2017-01-30 08:00:004,6100,01023,103,0E6,5NE40
2017-01-30 07:00:005,0100,01022,701,8NE5,5E00
2017-01-30 06:00:005,099,91023,002,9NE6,2NE00
2017-01-30 05:00:005,599,91023,502,3E5,4E00
2017-01-30 04:00:005,999,71023,902,3E4,1E00
2017-01-30 03:00:006,299,51024,401,7E9,3E00
2017-01-30 02:00:006,699,11024,701,1NE3,4E00
2017-01-30 01:00:007,298,81025,200,5NE2,8E00
2017-01-30 00:00:007,998,41025,501,6E3,7E00
2017-01-29 23:00:008,797,81025,501,5E4,0E00
2017-01-29 22:00:009,396,81025,501,9E9,6E00
2017-01-29 21:00:0010,294,91024,900,8N2,5N00
2017-01-29 20:00:0011,691,51024,502,1NW5,4NW00
2017-01-29 19:00:0013,186,51023,902,8SW6,2SW00
2017-01-29 18:00:0014,381,81023,303,7W12,6SW180,0
2017-01-29 17:00:0014,980,51022,705,9SW11,6SW760,1
2017-01-29 16:00:0015,876,61022,308,1SW15,3SW1460,6
2017-01-29 15:00:0017,172,81022,409,3S19,3SW4291,8
2017-01-29 14:00:0017,071,11023,109,0S21,7S5152,6
2017-01-29 13:00:0016,870,91024,107,0S13,4S5092,6
2017-01-29 12:00:0015,975,7102505,7S11,9S4622,1
2017-01-29 11:00:0012,884,91025,503,0E8,9N3831,3
2017-01-29 10:00:009,196,71025,302,3E6,8E2690,4
2017-01-29 09:00:005,899,91025,702,7E11,8SE1120,0
2017-01-29 08:00:004,6100,01025,502,6E7,9E30
2017-01-29 07:00:005,099,91025,401,9NE6,2NE00
2017-01-29 06:00:005,399,81024,903,7E6,9E00
2017-01-29 05:00:005,899,61024,702,1E5,0NE00
2017-01-29 04:00:006,199,41024,903,0E6,1E00
2017-01-29 03:00:006,499,11025,102,1E7,8NE00
2017-01-29 02:00:006,998,81025,102,0E6,0E-10
2017-01-29 01:00:007,598,51025,601,8E4,6E00
2017-01-29 00:00:007,998,11025,901,4NE3,4NE00
2017-01-28 23:00:008,197,41025,902,0E6,4E00
2017-01-28 22:00:008,596,41025,601,8E4,2E00
2017-01-28 21:00:009,495,21025,401,5NE3,5E00
2017-01-28 20:00:0010,092,91024,801,0NW4,9SW00
2017-01-28 19:00:0011,287,81024,103,6NW8,6NW00
2017-01-28 18:00:0013,280,51023,705,3W11,1W210,0
2017-01-28 17:00:0014,479,21023,409,1SW18,1SW590,1
2017-01-28 16:00:0014,977,11022,909,4SW21,1SW900,6
2017-01-28 15:00:0016,272,61022,8010,8SW20,2SW2531,3
2017-01-28 14:00:0016,273,31023,3011,7SW21,4SW3601,8
2017-01-28 13:00:0016,172,91024,208,0SW15,9S3812,1
2017-01-28 12:00:0016,072,81025,006,9SW15,4W3992,0
2017-01-28 11:00:0012,381,51022,301,2E6,8NE3281,1
2017-01-28 10:00:009,192,41025,901,9E6,2E2400,4
2017-01-28 09:00:005,899,61025,902,0E4,6E1020,0
2017-01-28 08:00:004,899,41025,402,1NE8,3NE50
2017-01-28 07:00:005,599,31024,902,7E5,3E00
2017-01-28 06:00:004,999,31024,502,7E5,7E00
2017-01-28 05:00:004,898,91024,202,8E5,3E00
2017-01-28 04:00:005,298,51023,902,9E5,0E00
2017-01-28 03:00:005,797,81023,402,6E4,7E00
2017-01-28 02:00:006,797,11023,302,2E4,7E00
2017-01-28 01:00:006,896,31023,401,5E4,6NE00
2017-01-28 00:00:006,795,91022,702,0W6,9NE00
2017-01-27 23:00:007,094,91022,003,8W10,4W00
2017-01-27 22:00:007,293,81021,404,7W10,3W00
2017-01-27 21:00:007,991,41020,603,4W8,3W00
2017-01-27 20:00:009,186,21019,804,4W11,6W00
2017-01-27 19:00:0010,480,61018,807,3NW17,7NW00
2017-01-27 18:00:0011,183,41017,908,3NW21,1NW110,0
2017-01-27 17:00:0011,883,91016,60,411,7NW38,2NW570,1
2017-01-27 16:00:0014,362,61015,10,217,5NW43,2NW1300,5
2017-01-27 15:00:0015,756,91014,0020,5NW43,7NW4581,4
2017-01-27 14:00:0015,062,01014,0017,9NW36,9NW4531,7
2017-01-27 13:00:0014,964,91013,8018,7NW44,8W4101,6
2017-01-27 12:00:0013,182,21014,0015,7NW43,0NW4691,4
2017-01-27 11:00:0011,193,91013,50,412,4NW42,2NW3140,7
2017-01-27 10:00:0010,899,01013,006,5W23,1W2360,3
2017-01-27 09:00:008,7100,01012,61,26,3NW30,9W590,0
2017-01-27 08:00:008,8100,01006,127,9NW31,9W30
2017-01-27 07:00:008,4100,01008,90,44,1W12,3W00
2017-01-27 06:00:008,8100,01009,905,5W21,9N00
2017-01-27 05:00:008,7100,01009,61,48,8W47,4W00
2017-01-27 04:00:009,2100,01009,725,3W21,1NW00
2017-01-27 03:00:009,4100,01009,70,44,7W15,2SW00
2017-01-27 02:00:0010,1100,01009,706,5W16,7W00
2017-01-27 01:00:009,8100,01009,91,46,6W28,0W00
2017-01-27 00:00:009,4100,01010,003,9W13,0W00
2017-01-26 23:00:009,8100,01009,604,1W12,3SW00
2017-01-26 22:00:009,9100,01009,204,2W13,7SW00
2017-01-26 21:00:009,9100,01008,60,25,3W12,8NW00
2017-01-26 20:00:0010,499,91007,807,2NW20,7NW00
2017-01-26 19:00:0010,599,71007,015,6N14,9N00
2017-01-26 15:00:0012,098,01008,7515,5SW38,8SW140,0
2017-01-26 14:00:0013,097,91009,01,622,7S45,9SW300,1
2017-01-26 13:00:0013,196,41010,25,219,1S35,5S250,0
2017-01-26 12:00:0013,493,01011,6117,3S36,1S680,2
2017-01-26 11:00:0013,786,61012,10,820,9S40,1SW350,0
2017-01-26 09:00:0013,783,51013,0017,2S34,9S90
2017-01-26 08:00:0013,485,41013,5013,0S29,6S00
2017-01-26 07:00:0013,384,51014,1011,8S28,1SW00
2017-01-26 06:00:0012,885,91014,6010,5S24,6S00
2017-01-26 05:00:0010,290,21015,506,8S20,1S00
2017-01-26 04:00:008,888,51016,503,0E13,7E00
2017-01-26 03:00:008,289,61017,201,8E13,5SE00
2017-01-26 02:00:008,189,81017,602,6E6,1E00
2017-01-26 01:00:007,988,51018,202,3E8,5E00
2017-01-26 00:00:008,785,41018,702,3E6,5E00
2017-01-25 23:00:008,884,61019,102,3E5,4E00
2017-01-25 22:00:008,884,81019,301,5E4,1E00
2017-01-25 21:00:008,585,21019,502,1E4,7E00
2017-01-25 20:00:009,182,11019,501,1NE3,7E00
2017-01-25 19:00:009,878,21019,201,9SW7,5W00
2017-01-25 18:00:0011,671,01018,904,0SW9,9S180,0
2017-01-25 17:00:0013,266,61018,707,9SW17,4SW910,2
2017-01-25 16:00:0013,764,31018,708,1SW15,4SW1570,6
2017-01-25 15:00:0015,457,21019,0010,1SW18,1SW3901,6
2017-01-25 14:00:0015,356,61020,009,2SW17,0SW4972,2
2017-01-25 13:00:0014,856,51021,207,8SW18,4SW5182,3
2017-01-25 12:00:0013,457,01022,603,3SE10,7E4571,8
2017-01-25 09:00:001,897,21024,802,2E5,5E1010,0
2017-01-25 08:00:000,397,51024,602,3E4,3E30
2017-01-25 07:00:000,597,01024,101,4NE8,3NE00
2017-01-25 06:00:000,896,61023,901,7NE4,4NE00
2017-01-25 05:00:001,295,91024,102,1E4,1E00
2017-01-25 04:00:001,695,11024,402,5E5,3E00
2017-01-25 03:00:002,094,21024,802,7E6,2E00
2017-01-25 02:00:002,593,01025,002,2E4,7NE00
2017-01-25 01:00:002,891,21025,402,3E4,6NE00
2017-01-25 00:00:003,489,71025,501,0NE9,3E00